BAW997T EDDB-EGLL
Flight info
| Callsign | BAW997T |
|---|---|
| Flight time | 1h 28m |
| Altitude | 36000 |
| Route | SUKIP4B SUKIP Y206 BUREL P203 HLZ L980 ROBEG DCT ABNED L980 LOGAN LOGAN2H |
| Aircraft | A320/M-SDE3FGIJ1KRWXY/SB1 |
Departure
| Time | 2026-05-05 19:30 |
|---|---|
| Airport | Berlin Brandenburg Airport (EDDB) |
Arrival
| Time | 2026-05-05 20:59 |
|---|---|
| Airport | London Heathrow Airport (EGLL) |
| Time | Latitude | Longitude | Altitude | Speed | Heading |
|---|---|---|---|---|---|
| 2026-05-05 17:57 | 52.36097 | 13.50802 | 155 ft | 0 kts | 68° |
| 2026-05-05 19:18 | 52.36091 | 13.50777 | 154 ft | 2 kts | 68° |
| 2026-05-05 19:18 | 52.36085 | 13.50753 | 154 ft | 2 kts | 68° |
| 2026-05-05 19:18 | 52.36079 | 13.50728 | 154 ft | 2 kts | 68° |
| 2026-05-05 19:19 | 52.36072 | 13.50701 | 154 ft | 3 kts | 75° |
| 2026-05-05 19:19 | 52.36069 | 13.50671 | 154 ft | 3 kts | 99° |
| 2026-05-05 19:19 | 52.36075 | 13.50642 | 154 ft | 3 kts | 136° |
| 2026-05-05 19:19 | 52.36091 | 13.50626 | 154 ft | 3 kts | 159° |
| 2026-05-05 19:20 | 52.36093 | 13.50625 | 154 ft | 0 kts | 160° |
| 2026-05-05 19:23 | 52.36089 | 13.50627 | 154 ft | 2 kts | 160° |
| 2026-05-05 19:23 | 52.36070 | 13.50638 | 154 ft | 4 kts | 160° |
| 2026-05-05 19:23 | 52.36033 | 13.50660 | 154 ft | 9 kts | 160° |
| 2026-05-05 19:23 | 52.35968 | 13.50700 | 154 ft | 11 kts | 159° |
| 2026-05-05 19:24 | 52.35900 | 13.50704 | 154 ft | 9 kts | 210° |
| 2026-05-05 19:24 | 52.35858 | 13.50633 | 154 ft | 8 kts | 208° |
| 2026-05-05 19:24 | 52.35841 | 13.50630 | 154 ft | 0 kts | 178° |
| 2026-05-05 19:25 | 52.35817 | 13.50634 | 154 ft | 8 kts | 175° |
| 2026-05-05 19:25 | 52.35759 | 13.50566 | 154 ft | 14 kts | 248° |
| 2026-05-05 19:25 | 52.35721 | 13.50406 | 154 ft | 16 kts | 249° |
| 2026-05-05 19:26 | 52.35679 | 13.50226 | 154 ft | 18 kts | 249° |
| 2026-05-05 19:26 | 52.35632 | 13.50026 | 154 ft | 20 kts | 249° |
| 2026-05-05 19:26 | 52.35580 | 13.49807 | 154 ft | 22 kts | 249° |
| 2026-05-05 19:26 | 52.35531 | 13.49600 | 154 ft | 18 kts | 249° |
| 2026-05-05 19:27 | 52.35493 | 13.49439 | 154 ft | 14 kts | 249° |
| 2026-05-05 19:27 | 52.35454 | 13.49278 | 154 ft | 16 kts | 248° |
| 2026-05-05 19:27 | 52.35412 | 13.49102 | 154 ft | 17 kts | 248° |
| 2026-05-05 19:27 | 52.35365 | 13.48908 | 154 ft | 19 kts | 248° |
| 2026-05-05 19:28 | 52.35330 | 13.48762 | 155 ft | 21 kts | 249° |
| 2026-05-05 19:28 | 52.35282 | 13.48555 | 154 ft | 17 kts | 249° |
| 2026-05-05 19:28 | 52.35214 | 13.48481 | 154 ft | 12 kts | 161° |
| 2026-05-05 19:28 | 52.35132 | 13.48536 | 154 ft | 14 kts | 150° |
| 2026-05-05 19:29 | 52.35094 | 13.48685 | 154 ft | 16 kts | 98° |
| 2026-05-05 19:29 | 52.35078 | 13.48876 | 154 ft | 19 kts | 97° |
| 2026-05-05 19:29 | 52.35068 | 13.49060 | 154 ft | 16 kts | 71° |
| 2026-05-05 19:29 | 52.35123 | 13.49286 | 154 ft | 39 kts | 68° |
| 2026-05-05 19:30 | 52.35309 | 13.50070 | 155 ft | 104 kts | 69° |
| 2026-05-05 19:30 | 52.35682 | 13.51645 | 227 ft | 149 kts | 67° |
| 2026-05-05 19:30 | 52.35879 | 13.53024 | 700 ft | 151 kts | 96° |
| 2026-05-05 19:30 | 52.35324 | 13.54553 | 1363 ft | 156 kts | 131° |
| 2026-05-05 19:31 | 52.34407 | 13.55708 | 1746 ft | 180 kts | 157° |
| 2026-05-05 19:31 | 52.33054 | 13.55871 | 2050 ft | 205 kts | 189° |
| 2026-05-05 19:31 | 52.31687 | 13.54816 | 2345 ft | 227 kts | 217° |
| 2026-05-05 19:31 | 52.30385 | 13.53131 | 2625 ft | 252 kts | 217° |
| 2026-05-05 19:32 | 52.28960 | 13.51274 | 3200 ft | 267 kts | 218° |
| 2026-05-05 19:32 | 52.27523 | 13.49299 | 4066 ft | 272 kts | 227° |
| 2026-05-05 19:32 | 52.26539 | 13.46671 | 5005 ft | 274 kts | 251° |
| 2026-05-05 19:32 | 52.26289 | 13.43602 | 5938 ft | 276 kts | 273° |
| 2026-05-05 19:33 | 52.26438 | 13.40472 | 6819 ft | 277 kts | 274° |
| 2026-05-05 19:33 | 52.26592 | 13.37333 | 7690 ft | 279 kts | 274° |
| 2026-05-05 19:33 | 52.26746 | 13.34162 | 8549 ft | 281 kts | 273° |
| 2026-05-05 19:33 | 52.26834 | 13.30980 | 9446 ft | 281 kts | 270° |
| 2026-05-05 19:34 | 52.26854 | 13.27767 | 10131 ft | 290 kts | 269° |
| 2026-05-05 19:34 | 52.26843 | 13.24355 | 10342 ft | 312 kts | 268° |
| 2026-05-05 19:34 | 52.26823 | 13.20694 | 10638 ft | 329 kts | 269° |
| 2026-05-05 19:35 | 52.26797 | 13.13009 | 11862 ft | 341 kts | 268° |
| 2026-05-05 19:35 | 52.26792 | 13.09116 | 12541 ft | 344 kts | 268° |
| 2026-05-05 19:35 | 52.26791 | 13.05194 | 13231 ft | 347 kts | 268° |
| 2026-05-05 19:35 | 52.26789 | 13.01228 | 13886 ft | 350 kts | 268° |
| 2026-05-05 19:36 | 52.26784 | 12.97248 | 14486 ft | 353 kts | 268° |
| 2026-05-05 19:36 | 52.26778 | 12.93218 | 15082 ft | 356 kts | 268° |
| 2026-05-05 19:36 | 52.26770 | 12.89159 | 15632 ft | 360 kts | 268° |
| 2026-05-05 19:36 | 52.26762 | 12.85067 | 16203 ft | 363 kts | 268° |
| 2026-05-05 19:37 | 52.26753 | 12.80928 | 16776 ft | 366 kts | 268° |
| 2026-05-05 19:37 | 52.26744 | 12.76763 | 17354 ft | 369 kts | 268° |
| 2026-05-05 19:37 | 52.26733 | 12.72558 | 17938 ft | 372 kts | 268° |
| 2026-05-05 19:37 | 52.26719 | 12.68326 | 18470 ft | 374 kts | 268° |
| 2026-05-05 19:38 | 52.26706 | 12.64070 | 19003 ft | 377 kts | 268° |
| 2026-05-05 19:38 | 52.26689 | 12.59734 | 19557 ft | 378 kts | 268° |
| 2026-05-05 19:38 | 52.26670 | 12.55412 | 20099 ft | 380 kts | 267° |
| 2026-05-05 19:38 | 52.26649 | 12.51091 | 20634 ft | 382 kts | 267° |
| 2026-05-05 19:39 | 52.26628 | 12.46736 | 21147 ft | 384 kts | 267° |
| 2026-05-05 19:39 | 52.26605 | 12.42372 | 21651 ft | 386 kts | 267° |
| 2026-05-05 19:39 | 52.26579 | 12.37971 | 22104 ft | 389 kts | 267° |
| 2026-05-05 19:39 | 52.26550 | 12.33535 | 22592 ft | 391 kts | 267° |
| 2026-05-05 19:40 | 52.26522 | 12.29084 | 23064 ft | 393 kts | 267° |
| 2026-05-05 19:40 | 52.26492 | 12.24619 | 23514 ft | 396 kts | 266° |
| 2026-05-05 19:40 | 52.26458 | 12.20111 | 23919 ft | 397 kts | 266° |
| 2026-05-05 19:40 | 52.26423 | 12.15584 | 24312 ft | 399 kts | 266° |
| 2026-05-05 19:41 | 52.26385 | 12.11044 | 24714 ft | 401 kts | 266° |
| 2026-05-05 19:41 | 52.26345 | 12.06426 | 25107 ft | 403 kts | 266° |
| 2026-05-05 19:41 | 52.26306 | 12.01908 | 25481 ft | 404 kts | 266° |
| 2026-05-05 19:41 | 52.26262 | 11.97309 | 25862 ft | 406 kts | 266° |
| 2026-05-05 19:42 | 52.26217 | 11.92630 | 26253 ft | 408 kts | 266° |
| 2026-05-05 19:42 | 52.26171 | 11.87981 | 26620 ft | 410 kts | 266° |
| 2026-05-05 19:42 | 52.26123 | 11.83334 | 26990 ft | 412 kts | 266° |
| 2026-05-05 19:42 | 52.26071 | 11.78638 | 27365 ft | 414 kts | 265° |
| 2026-05-05 19:43 | 52.26017 | 11.73933 | 27741 ft | 416 kts | 265° |
| 2026-05-05 19:43 | 52.25963 | 11.69208 | 28117 ft | 418 kts | 265° |
| 2026-05-05 19:43 | 52.25907 | 11.64462 | 28480 ft | 419 kts | 265° |
| 2026-05-05 19:43 | 52.25848 | 11.59699 | 28833 ft | 421 kts | 265° |
| 2026-05-05 19:44 | 52.25787 | 11.54904 | 29183 ft | 423 kts | 265° |
| 2026-05-05 19:44 | 52.25720 | 11.50099 | 29591 ft | 424 kts | 265° |
| 2026-05-05 19:44 | 52.25651 | 11.45300 | 30073 ft | 422 kts | 265° |
| 2026-05-05 19:44 | 52.25580 | 11.40512 | 30515 ft | 421 kts | 265° |
| 2026-05-05 19:45 | 52.25510 | 11.35737 | 30905 ft | 421 kts | 265° |
| 2026-05-05 19:45 | 52.25443 | 11.31031 | 31322 ft | 420 kts | 264° |
| 2026-05-05 19:45 | 52.25372 | 11.26230 | 31763 ft | 419 kts | 264° |
| 2026-05-05 19:45 | 52.25301 | 11.21493 | 32216 ft | 417 kts | 264° |
| 2026-05-05 19:46 | 52.25229 | 11.16840 | 32654 ft | 416 kts | 264° |
| 2026-05-05 19:46 | 52.25153 | 11.12134 | 33113 ft | 414 kts | 264° |
| 2026-05-05 19:46 | 52.25075 | 11.07467 | 33567 ft | 413 kts | 264° |
| 2026-05-05 19:46 | 52.24991 | 11.02690 | 34004 ft | 411 kts | 264° |
| 2026-05-05 19:47 | 52.24906 | 10.98031 | 34288 ft | 413 kts | 263° |
| 2026-05-05 19:47 | 52.24819 | 10.93335 | 34559 ft | 414 kts | 263° |
| 2026-05-05 19:47 | 52.24732 | 10.88641 | 34852 ft | 415 kts | 264° |
| 2026-05-05 19:47 | 52.24643 | 10.83933 | 35114 ft | 416 kts | 264° |
| 2026-05-05 19:48 | 52.24554 | 10.79224 | 35412 ft | 415 kts | 264° |
| 2026-05-05 19:48 | 52.24463 | 10.74508 | 35724 ft | 415 kts | 264° |
| 2026-05-05 19:48 | 52.24371 | 10.69789 | 35855 ft | 417 kts | 264° |
| 2026-05-05 19:49 | 52.24170 | 10.60243 | 35864 ft | 423 kts | 264° |
| 2026-05-05 19:49 | 52.23966 | 10.50648 | 35863 ft | 424 kts | 264° |
| 2026-05-05 19:50 | 52.23751 | 10.41047 | 35876 ft | 424 kts | 264° |
| 2026-05-05 19:50 | 52.23560 | 10.32971 | 35855 ft | 425 kts | 264° |
| 2026-05-05 19:51 | 52.23329 | 10.23246 | 35846 ft | 426 kts | 264° |
| 2026-05-05 19:51 | 52.23096 | 10.13597 | 35857 ft | 426 kts | 264° |
| 2026-05-05 19:52 | 52.22851 | 10.03944 | 35868 ft | 426 kts | 263° |
| 2026-05-05 19:52 | 52.22593 | 9.94272 | 35870 ft | 426 kts | 263° |
| 2026-05-05 19:53 | 52.22326 | 9.84609 | 35874 ft | 427 kts | 263° |
| 2026-05-05 19:53 | 52.22059 | 9.74939 | 35875 ft | 427 kts | 263° |
| 2026-05-05 19:54 | 52.21784 | 9.65200 | 35867 ft | 427 kts | 263° |
| 2026-05-05 19:54 | 52.21497 | 9.55513 | 35877 ft | 427 kts | 263° |
| 2026-05-05 19:55 | 52.21201 | 9.45835 | 35871 ft | 428 kts | 263° |
| 2026-05-05 19:55 | 52.20900 | 9.36152 | 35876 ft | 428 kts | 263° |
| 2026-05-05 19:56 | 52.20589 | 9.26473 | 35886 ft | 428 kts | 263° |
| 2026-05-05 19:56 | 52.20271 | 9.16791 | 35879 ft | 428 kts | 263° |
| 2026-05-05 19:57 | 52.19947 | 9.07105 | 35880 ft | 428 kts | 263° |
| 2026-05-05 19:57 | 52.19613 | 8.97430 | 35891 ft | 428 kts | 263° |
| 2026-05-05 19:58 | 52.19267 | 8.87684 | 35904 ft | 428 kts | 263° |
| 2026-05-05 19:58 | 52.18923 | 8.78070 | 35862 ft | 429 kts | 263° |
| 2026-05-05 19:59 | 52.18565 | 8.68286 | 35853 ft | 430 kts | 262° |
| 2026-05-05 19:59 | 52.18193 | 8.58560 | 35851 ft | 431 kts | 262° |
| 2026-05-05 20:00 | 52.17819 | 8.48800 | 35856 ft | 432 kts | 262° |
| 2026-05-05 20:00 | 52.17432 | 8.39041 | 35876 ft | 432 kts | 262° |
| 2026-05-05 20:01 | 52.17037 | 8.29284 | 35874 ft | 432 kts | 262° |
| 2026-05-05 20:01 | 52.16632 | 8.19450 | 35871 ft | 433 kts | 262° |
| 2026-05-05 20:02 | 52.16220 | 8.09677 | 35873 ft | 433 kts | 262° |
| 2026-05-05 20:02 | 52.15801 | 7.99890 | 35879 ft | 433 kts | 262° |
| 2026-05-05 20:03 | 52.15370 | 7.89973 | 35880 ft | 433 kts | 262° |
| 2026-05-05 20:03 | 52.14940 | 7.80196 | 35890 ft | 433 kts | 262° |
| 2026-05-05 20:04 | 52.14494 | 7.70353 | 35888 ft | 433 kts | 262° |
| 2026-05-05 20:04 | 52.14034 | 7.60574 | 35885 ft | 433 kts | 262° |
| 2026-05-05 20:05 | 52.13569 | 7.50804 | 35881 ft | 433 kts | 262° |
| 2026-05-05 20:05 | 52.13108 | 7.41035 | 35876 ft | 433 kts | 262° |
| 2026-05-05 20:06 | 52.12631 | 7.31262 | 35882 ft | 433 kts | 262° |
| 2026-05-05 20:06 | 52.12150 | 7.21488 | 35880 ft | 434 kts | 262° |
| 2026-05-05 20:07 | 52.11662 | 7.11711 | 35881 ft | 434 kts | 262° |
| 2026-05-05 20:07 | 52.11163 | 7.01917 | 35882 ft | 434 kts | 262° |
| 2026-05-05 20:08 | 52.10655 | 6.92133 | 35880 ft | 434 kts | 261° |
| 2026-05-05 20:08 | 52.10138 | 6.82347 | 35895 ft | 434 kts | 261° |
| 2026-05-05 20:09 | 52.09605 | 6.72492 | 35889 ft | 434 kts | 261° |
| 2026-05-05 20:09 | 52.09071 | 6.62706 | 35881 ft | 435 kts | 261° |
| 2026-05-05 20:10 | 52.08530 | 6.52897 | 35878 ft | 436 kts | 261° |
| 2026-05-05 20:10 | 52.07975 | 6.43076 | 35884 ft | 437 kts | 261° |
| 2026-05-05 20:11 | 52.07418 | 6.33242 | 35901 ft | 437 kts | 261° |
| 2026-05-05 20:11 | 52.06859 | 6.23410 | 35906 ft | 437 kts | 261° |
| 2026-05-05 20:12 | 52.06288 | 6.13572 | 35906 ft | 437 kts | 261° |
| 2026-05-05 20:12 | 52.05690 | 6.03674 | 35908 ft | 437 kts | 261° |
| 2026-05-05 20:13 | 52.05078 | 5.93837 | 35906 ft | 437 kts | 261° |
| 2026-05-05 20:13 | 52.04474 | 5.84009 | 35919 ft | 437 kts | 261° |
| 2026-05-05 20:14 | 52.03971 | 5.75838 | 35915 ft | 437 kts | 261° |
| 2026-05-05 20:14 | 52.03359 | 5.66009 | 35911 ft | 437 kts | 261° |
| 2026-05-05 20:15 | 52.02724 | 5.56127 | 35910 ft | 437 kts | 261° |
| 2026-05-05 20:15 | 52.02083 | 5.46307 | 35917 ft | 437 kts | 261° |
| 2026-05-05 20:16 | 52.01454 | 5.36550 | 35927 ft | 437 kts | 261° |
| 2026-05-05 20:16 | 52.00806 | 5.26672 | 35929 ft | 437 kts | 261° |
| 2026-05-05 20:17 | 52.00146 | 5.16875 | 35925 ft | 437 kts | 261° |
| 2026-05-05 20:17 | 51.99478 | 5.07084 | 35927 ft | 437 kts | 261° |
| 2026-05-05 20:18 | 51.98804 | 4.97303 | 35919 ft | 436 kts | 260° |
| 2026-05-05 20:18 | 51.98117 | 4.87536 | 35938 ft | 436 kts | 261° |
| 2026-05-05 20:19 | 51.97427 | 4.77734 | 35924 ft | 436 kts | 261° |
| 2026-05-05 20:19 | 51.96731 | 4.67965 | 35935 ft | 436 kts | 261° |
| 2026-05-05 20:20 | 51.96026 | 4.58190 | 35937 ft | 436 kts | 260° |
| 2026-05-05 20:20 | 51.95313 | 4.48422 | 35924 ft | 437 kts | 260° |
| 2026-05-05 20:21 | 51.94604 | 4.38804 | 35923 ft | 438 kts | 260° |
| 2026-05-05 20:21 | 51.93874 | 4.29056 | 35926 ft | 438 kts | 260° |
| 2026-05-05 20:22 | 51.93123 | 4.19191 | 35922 ft | 439 kts | 260° |
| 2026-05-05 20:22 | 51.92372 | 4.09384 | 35929 ft | 439 kts | 260° |
| 2026-05-05 20:23 | 51.91628 | 3.99580 | 35928 ft | 439 kts | 260° |
| 2026-05-05 20:23 | 51.90872 | 3.89770 | 35945 ft | 439 kts | 259° |
| 2026-05-05 20:24 | 51.90100 | 3.79964 | 35940 ft | 439 kts | 260° |
| 2026-05-05 20:24 | 51.89309 | 3.70181 | 35933 ft | 438 kts | 259° |
| 2026-05-05 20:25 | 51.88511 | 3.60389 | 35933 ft | 438 kts | 260° |
| 2026-05-05 20:25 | 51.87712 | 3.50619 | 35947 ft | 438 kts | 259° |
| 2026-05-05 20:26 | 51.86904 | 3.40849 | 35948 ft | 438 kts | 259° |
| 2026-05-05 20:26 | 51.86084 | 3.31069 | 35956 ft | 438 kts | 260° |
| 2026-05-05 20:27 | 51.85258 | 3.21319 | 35952 ft | 438 kts | 259° |
| 2026-05-05 20:27 | 51.84473 | 3.11552 | 35957 ft | 438 kts | 261° |
| 2026-05-05 20:28 | 51.83853 | 3.01683 | 35956 ft | 438 kts | 261° |
| 2026-05-05 20:28 | 51.83266 | 2.91872 | 35958 ft | 438 kts | 261° |
| 2026-05-05 20:29 | 51.82633 | 2.82073 | 35959 ft | 438 kts | 261° |
| 2026-05-05 20:29 | 51.81963 | 2.72267 | 35956 ft | 439 kts | 261° |
| 2026-05-05 20:30 | 51.81284 | 2.62467 | 35956 ft | 439 kts | 261° |
| 2026-05-05 20:30 | 51.80613 | 2.52663 | 35959 ft | 439 kts | 261° |
| 2026-05-05 20:31 | 51.79932 | 2.42860 | 35706 ft | 439 kts | 260° |
| 2026-05-05 20:31 | 51.79580 | 2.37918 | 34908 ft | 444 kts | 260° |
| 2026-05-05 20:31 | 51.79225 | 2.32949 | 34134 ft | 448 kts | 259° |
| 2026-05-05 20:31 | 51.78862 | 2.27930 | 33192 ft | 453 kts | 260° |
| 2026-05-05 20:32 | 51.78492 | 2.22860 | 32310 ft | 455 kts | 260° |
| 2026-05-05 20:32 | 51.78139 | 2.17769 | 31498 ft | 457 kts | 261° |
| 2026-05-05 20:32 | 51.77833 | 2.12702 | 31030 ft | 450 kts | 262° |
| 2026-05-05 20:32 | 51.77553 | 2.07690 | 30436 ft | 447 kts | 263° |
| 2026-05-05 20:33 | 51.77278 | 2.02703 | 29828 ft | 444 kts | 262° |
| 2026-05-05 20:33 | 51.77002 | 1.97772 | 29219 ft | 438 kts | 262° |
| 2026-05-05 20:33 | 51.76719 | 1.92899 | 28657 ft | 433 kts | 262° |
| 2026-05-05 20:33 | 51.76433 | 1.88092 | 28089 ft | 428 kts | 262° |
| 2026-05-05 20:34 | 51.76145 | 1.83348 | 27525 ft | 423 kts | 263° |
| 2026-05-05 20:34 | 51.75853 | 1.78646 | 26968 ft | 418 kts | 262° |
| 2026-05-05 20:34 | 51.75561 | 1.74006 | 26429 ft | 414 kts | 263° |
| 2026-05-05 20:34 | 51.75270 | 1.69405 | 25890 ft | 410 kts | 263° |
| 2026-05-05 20:35 | 51.74981 | 1.64857 | 25375 ft | 406 kts | 263° |
| 2026-05-05 20:35 | 51.74696 | 1.60341 | 24860 ft | 403 kts | 263° |
| 2026-05-05 20:35 | 51.74407 | 1.55779 | 24234 ft | 403 kts | 264° |
| 2026-05-05 20:35 | 51.74121 | 1.51280 | 23632 ft | 403 kts | 264° |
| 2026-05-05 20:36 | 51.73835 | 1.46785 | 22951 ft | 403 kts | 264° |
| 2026-05-05 20:36 | 51.73548 | 1.42297 | 22364 ft | 401 kts | 264° |
| 2026-05-05 20:36 | 51.73260 | 1.37834 | 21764 ft | 399 kts | 264° |
| 2026-05-05 20:36 | 51.72971 | 1.33391 | 21170 ft | 397 kts | 264° |
| 2026-05-05 20:37 | 51.72679 | 1.28969 | 20576 ft | 396 kts | 264° |
| 2026-05-05 20:37 | 51.72484 | 1.26041 | 20182 ft | 396 kts | 264° |
| 2026-05-05 20:37 | 51.72089 | 1.20160 | 19393 ft | 394 kts | 264° |
| 2026-05-05 20:37 | 51.71795 | 1.15772 | 18805 ft | 393 kts | 264° |
| 2026-05-05 20:38 | 51.71503 | 1.11392 | 18270 ft | 390 kts | 264° |
| 2026-05-05 20:38 | 51.71212 | 1.07064 | 17695 ft | 387 kts | 264° |
| 2026-05-05 20:38 | 51.70918 | 1.02763 | 17112 ft | 383 kts | 264° |
| 2026-05-05 20:38 | 51.70625 | 0.98497 | 16487 ft | 381 kts | 264° |
| 2026-05-05 20:39 | 51.70334 | 0.94304 | 16034 ft | 375 kts | 264° |
| 2026-05-05 20:39 | 51.70041 | 0.90110 | 15353 ft | 367 kts | 264° |
| 2026-05-05 20:39 | 51.69759 | 0.86093 | 14696 ft | 354 kts | 264° |
| 2026-05-05 20:39 | 51.69487 | 0.82222 | 14157 ft | 343 kts | 264° |
| 2026-05-05 20:40 | 51.69220 | 0.78422 | 13601 ft | 341 kts | 264° |
| 2026-05-05 20:40 | 51.68951 | 0.74627 | 13032 ft | 340 kts | 264° |
| 2026-05-05 20:40 | 51.68678 | 0.70799 | 12499 ft | 339 kts | 264° |
| 2026-05-05 20:40 | 51.68411 | 0.67041 | 11965 ft | 337 kts | 265° |
| 2026-05-05 20:41 | 51.68142 | 0.63232 | 11432 ft | 336 kts | 265° |
| 2026-05-05 20:41 | 51.67875 | 0.59502 | 11066 ft | 331 kts | 264° |
| 2026-05-05 20:41 | 51.67611 | 0.55898 | 10941 ft | 319 kts | 264° |
| 2026-05-05 20:41 | 51.67356 | 0.52417 | 10811 ft | 308 kts | 264° |
| 2026-05-05 20:42 | 51.67190 | 0.50131 | 10733 ft | 301 kts | 265° |
| 2026-05-05 20:42 | 51.66947 | 0.46776 | 10505 ft | 294 kts | 265° |
| 2026-05-05 20:42 | 51.66708 | 0.43451 | 10137 ft | 294 kts | 265° |
| 2026-05-05 20:42 | 51.66478 | 0.40201 | 9843 ft | 291 kts | 265° |
| 2026-05-05 20:43 | 51.66249 | 0.36986 | 9254 ft | 289 kts | 265° |
| 2026-05-05 20:43 | 51.66016 | 0.33777 | 8720 ft | 287 kts | 265° |
| 2026-05-05 20:43 | 51.65778 | 0.30575 | 8355 ft | 286 kts | 265° |
| 2026-05-05 20:43 | 51.65537 | 0.27410 | 8046 ft | 284 kts | 265° |
| 2026-05-05 20:44 | 51.65296 | 0.24288 | 7791 ft | 279 kts | 265° |
| 2026-05-05 20:44 | 51.65060 | 0.21194 | 7488 ft | 277 kts | 265° |
| 2026-05-05 20:44 | 51.64829 | 0.18122 | 7173 ft | 276 kts | 265° |
| 2026-05-05 20:44 | 51.64599 | 0.15066 | 6991 ft | 275 kts | 265° |
| 2026-05-05 20:45 | 51.64222 | 0.08938 | 6972 ft | 275 kts | 267° |
| 2026-05-05 20:45 | 51.64057 | 0.05822 | 6973 ft | 275 kts | 267° |
| 2026-05-05 20:45 | 51.63882 | 0.02505 | 6976 ft | 276 kts | 267° |
| 2026-05-05 20:46 | 51.63719 | -0.00546 | 7020 ft | 276 kts | 267° |
| 2026-05-05 20:46 | 51.63529 | -0.04033 | 7032 ft | 275 kts | 267° |
| 2026-05-05 20:46 | 51.63385 | -0.06618 | 7036 ft | 275 kts | 267° |
| 2026-05-05 20:46 | 51.63211 | -0.09711 | 7041 ft | 275 kts | 266° |
| 2026-05-05 20:47 | 51.63039 | -0.12771 | 7044 ft | 275 kts | 266° |
| 2026-05-05 20:47 | 51.62864 | -0.15872 | 7050 ft | 275 kts | 266° |
| 2026-05-05 20:47 | 51.62688 | -0.18931 | 7054 ft | 275 kts | 266° |
| 2026-05-05 20:47 | 51.62510 | -0.22039 | 7056 ft | 275 kts | 266° |
| 2026-05-05 20:48 | 51.62335 | -0.25099 | 7056 ft | 275 kts | 267° |
| 2026-05-05 20:48 | 51.62158 | -0.28164 | 7059 ft | 275 kts | 266° |
| 2026-05-05 20:48 | 51.61979 | -0.31231 | 7056 ft | 274 kts | 266° |
| 2026-05-05 20:48 | 51.61802 | -0.34213 | 6968 ft | 262 kts | 266° |
| 2026-05-05 20:49 | 51.61627 | -0.37137 | 6976 ft | 263 kts | 266° |
| 2026-05-05 20:49 | 51.61454 | -0.40072 | 6975 ft | 264 kts | 266° |
| 2026-05-05 20:49 | 51.61278 | -0.43067 | 6975 ft | 264 kts | 266° |
| 2026-05-05 20:49 | 51.61107 | -0.45954 | 6975 ft | 264 kts | 266° |
| 2026-05-05 20:50 | 51.60932 | -0.48932 | 6974 ft | 264 kts | 266° |
| 2026-05-05 20:50 | 51.60758 | -0.51831 | 6789 ft | 263 kts | 266° |
| 2026-05-05 20:50 | 51.60579 | -0.54783 | 6483 ft | 262 kts | 266° |
| 2026-05-05 20:50 | 51.60402 | -0.57704 | 6161 ft | 262 kts | 266° |
| 2026-05-05 20:51 | 51.60223 | -0.60610 | 5821 ft | 262 kts | 266° |
| 2026-05-05 20:51 | 51.60045 | -0.63509 | 5521 ft | 260 kts | 266° |
| 2026-05-05 20:51 | 51.59870 | -0.66371 | 5376 ft | 253 kts | 266° |
| 2026-05-05 20:51 | 51.59702 | -0.69132 | 5253 ft | 244 kts | 266° |
| 2026-05-05 20:52 | 51.59537 | -0.71812 | 5057 ft | 238 kts | 266° |
| 2026-05-05 20:52 | 51.59376 | -0.74452 | 4750 ft | 236 kts | 266° |
| 2026-05-05 20:52 | 51.59011 | -0.77028 | 4373 ft | 240 kts | 243° |
| 2026-05-05 20:52 | 51.57891 | -0.78966 | 4057 ft | 239 kts | 209° |
| 2026-05-05 20:53 | 51.56314 | -0.79641 | 3730 ft | 236 kts | 176° |
| 2026-05-05 20:53 | 51.54683 | -0.79418 | 3396 ft | 236 kts | 174° |
| 2026-05-05 20:53 | 51.53026 | -0.79304 | 3109 ft | 235 kts | 177° |
| 2026-05-05 20:53 | 51.51397 | -0.79247 | 2994 ft | 234 kts | 177° |
| 2026-05-05 20:54 | 51.49767 | -0.79193 | 3000 ft | 235 kts | 176° |
| 2026-05-05 20:54 | 51.48224 | -0.78563 | 2996 ft | 229 kts | 143° |
| 2026-05-05 20:54 | 51.47314 | -0.76581 | 3000 ft | 221 kts | 102° |
| 2026-05-05 20:54 | 51.47411 | -0.74257 | 2999 ft | 205 kts | 72° |
| 2026-05-05 20:55 | 51.47648 | -0.72113 | 2960 ft | 186 kts | 87° |
| 2026-05-05 20:55 | 51.47652 | -0.70129 | 2763 ft | 170 kts | 88° |
| 2026-05-05 20:55 | 51.47655 | -0.68295 | 2578 ft | 162 kts | 88° |
| 2026-05-05 20:55 | 51.47662 | -0.66496 | 2349 ft | 160 kts | 88° |
| 2026-05-05 20:56 | 51.47671 | -0.64720 | 2131 ft | 158 kts | 89° |
| 2026-05-05 20:56 | 51.47680 | -0.62961 | 1915 ft | 157 kts | 88° |
| 2026-05-05 20:56 | 51.47689 | -0.61190 | 1704 ft | 156 kts | 89° |
| 2026-05-05 20:56 | 51.47698 | -0.59456 | 1486 ft | 156 kts | 89° |
| 2026-05-05 20:57 | 51.47707 | -0.57726 | 1268 ft | 150 kts | 89° |
| 2026-05-05 20:57 | 51.47714 | -0.56126 | 1070 ft | 138 kts | 89° |
| 2026-05-05 20:57 | 51.47721 | -0.54612 | 869 ft | 135 kts | 88° |
| 2026-05-05 20:57 | 51.47735 | -0.53107 | 706 ft | 134 kts | 86° |
| 2026-05-05 20:58 | 51.47743 | -0.51616 | 521 ft | 132 kts | 87° |
| 2026-05-05 20:58 | 51.47747 | -0.50114 | 335 ft | 133 kts | 86° |
| 2026-05-05 20:58 | 51.47746 | -0.49051 | 201 ft | 133 kts | 86° |
| 2026-05-05 20:58 | 51.47756 | -0.47351 | 89 ft | 113 kts | 89° |
| 2026-05-05 20:59 | 51.47760 | -0.46370 | 90 ft | 66 kts | 90° |
| 2026-05-05 20:59 | 51.47765 | -0.45757 | 84 ft | 48 kts | 90° |
| 2026-05-05 20:59 | 51.47694 | -0.45473 | 87 ft | 22 kts | 163° |
| 2026-05-05 20:59 | 51.47575 | -0.45465 | 86 ft | 17 kts | 179° |
| 2026-05-05 21:00 | 51.47507 | -0.45575 | 86 ft | 15 kts | 269° |
| 2026-05-05 21:00 | 51.47513 | -0.45754 | 89 ft | 17 kts | 279° |
| 2026-05-05 21:00 | 51.47519 | -0.45951 | 86 ft | 19 kts | 270° |
| 2026-05-05 21:00 | 51.47517 | -0.46177 | 86 ft | 22 kts | 269° |
| 2026-05-05 21:01 | 51.47516 | -0.46427 | 86 ft | 22 kts | 270° |
| 2026-05-05 21:01 | 51.47514 | -0.46683 | 86 ft | 23 kts | 264° |
| 2026-05-05 21:01 | 51.47496 | -0.46905 | 87 ft | 20 kts | 267° |
| 2026-05-05 21:01 | 51.47489 | -0.47141 | 86 ft | 22 kts | 267° |
| 2026-05-05 21:02 | 51.47492 | -0.47389 | 86 ft | 21 kts | 270° |
| 2026-05-05 21:02 | 51.47491 | -0.47617 | 86 ft | 21 kts | 270° |
| 2026-05-05 21:02 | 51.47490 | -0.47854 | 86 ft | 21 kts | 269° |
| 2026-05-05 21:02 | 51.47489 | -0.48093 | 86 ft | 21 kts | 270° |
| 2026-05-05 21:03 | 51.47489 | -0.48328 | 86 ft | 20 kts | 270° |
| 2026-05-05 21:03 | 51.47448 | -0.48477 | 89 ft | 14 kts | 188° |
| 2026-05-05 21:03 | 51.47360 | -0.48474 | 86 ft | 12 kts | 179° |
| 2026-05-05 21:03 | 51.47277 | -0.48472 | 90 ft | 10 kts | 194° |
| 2026-05-05 21:04 | 51.47273 | -0.48518 | 87 ft | 4 kts | 263° |
| 2026-05-05 21:04 | 51.47271 | -0.48572 | 88 ft | 4 kts | 269° |
| 2026-05-05 21:04 | 51.47271 | -0.48587 | 89 ft | 0 kts | 269° |